createdAt,value
2022-09-23T00:01:03.278Z,17.60
2022-09-23T00:03:30.785Z,19.58
2022-09-23T00:06:01.554Z,22.08
2022-09-23T00:08:28.920Z,17.77
2022-09-23T00:10:55.832Z,18.25
2022-09-23T00:13:24.572Z,14.15
2022-09-23T00:15:51.701Z,16.42
2022-09-23T00:18:18.250Z,14.10
2022-09-23T00:20:45.185Z,14.60
2022-09-23T00:23:11.845Z,14.50
2022-09-23T00:25:38.327Z,15.32
2022-09-23T00:28:04.778Z,14.30
2022-09-23T00:30:32.342Z,13.68
2022-09-23T00:32:58.848Z,13.73
2022-09-23T00:35:25.278Z,12.02
2022-09-23T00:37:51.874Z,13.82
2022-09-23T00:40:18.652Z,14.18
2022-09-23T00:42:46.961Z,11.98
2022-09-23T00:45:13.601Z,12.57
2022-09-23T00:47:48.048Z,11.73
2022-09-23T00:50:35.174Z,13.23
2022-09-23T00:53:03.760Z,12.85
2022-09-23T00:55:34.138Z,12.70
2022-09-23T00:58:03.389Z,12.63
2022-09-23T01:00:29.902Z,10.95
2022-09-23T01:02:56.346Z,15.13
2022-09-23T01:05:23.403Z,12.13
2022-09-23T01:07:50.820Z,13.55
2022-09-23T01:10:18.534Z,12.37
2022-09-23T01:12:50.151Z,14.07
2022-09-23T01:15:40.511Z,12.30
2022-09-23T01:18:11.379Z,11.77
2022-09-23T01:20:47.384Z,11.35
2022-09-23T01:23:23.246Z,11.90
2022-09-23T01:26:03.896Z,9.82
2022-09-23T01:28:37.615Z,12.48
2022-09-23T01:31:15.012Z,12.73
2022-09-23T01:34:03.459Z,11.68
2022-09-23T01:36:53.846Z,11.63
2022-09-23T01:39:33.714Z,11.18
2022-09-23T01:42:25.908Z,13.10
2022-09-23T01:45:25.782Z,11.35
2022-09-23T01:47:57.138Z,8.60
2022-09-23T01:50:52.043Z,11.10
2022-09-23T01:53:23.527Z,11.02
2022-09-23T01:55:53.164Z,10.52
2022-09-23T01:58:27.957Z,10.43
2022-09-23T02:00:59.535Z,12.13
2022-09-23T02:03:32.343Z,10.63
2022-09-23T02:06:22.384Z,10.45
2022-09-23T02:08:58.486Z,13.23
2022-09-23T02:11:25.712Z,14.45
2022-09-23T02:14:08.926Z,11.25
2022-09-23T02:16:55.108Z,12.80
2022-09-23T02:19:29.486Z,10.80
2022-09-23T02:22:03.667Z,11.73
2022-09-23T02:24:36.802Z,13.70
2022-09-23T02:27:26.265Z,10.95
2022-09-23T02:30:03.931Z,13.37
2022-09-23T02:32:48.855Z,13.85
2022-09-23T02:35:15.629Z,13.45
2022-09-23T02:37:48.263Z,15.48
2022-09-23T02:40:23.586Z,13.52
2022-09-23T02:43:21.193Z,15.10
2022-09-23T02:45:47.795Z,12.05
2022-09-23T02:48:18.809Z,14.90
2022-09-23T02:50:47.693Z,14.60
2022-09-23T02:53:16.159Z,13.85
2022-09-23T02:55:43.032Z,11.97
2022-09-23T02:58:10.242Z,13.20
2022-09-23T03:00:57.954Z,15.55
2022-09-23T03:03:47.235Z,11.75
2022-09-23T03:06:28.069Z,12.57
2022-09-23T03:09:12.543Z,11.87
2022-09-23T03:11:41.163Z,11.57
2022-09-23T03:14:20.554Z,11.43
2022-09-23T03:17:02.094Z,11.43
2022-09-23T03:19:28.474Z,14.50
2022-09-23T03:22:11.542Z,10.33
2022-09-23T03:24:39.426Z,11.15
2022-09-23T03:27:13.935Z,12.65
2022-09-23T03:29:45.570Z,11.63
2022-09-23T03:32:13.346Z,11.63
2022-09-23T03:34:41.531Z,8.60
2022-09-23T03:37:31.324Z,10.68
2022-09-23T03:40:09.501Z,10.63
2022-09-23T03:42:37.388Z,8.93
2022-09-23T03:45:08.311Z,9.15
2022-09-23T03:47:35.140Z,14.20
2022-09-23T03:50:01.839Z,8.70
2022-09-23T03:52:29.489Z,11.57
2022-09-23T03:54:56.059Z,10.30
2022-09-23T03:57:23.196Z,10.20
2022-09-23T03:59:50.644Z,8.57
2022-09-23T04:02:18.597Z,11.18
2022-09-23T04:04:46.578Z,8.43
2022-09-23T04:07:13.501Z,8.82
2022-09-23T04:09:40.450Z,9.82
2022-09-23T04:12:08.078Z,8.57
2022-09-23T04:14:34.805Z,9.88
2022-09-23T04:17:01.486Z,11.35
2022-09-23T04:19:28.073Z,8.20
2022-09-23T04:21:54.569Z,6.68
2022-09-23T04:24:21.851Z,8.30
2022-09-23T04:26:51.965Z,7.45
2022-09-23T04:29:19.735Z,7.85
2022-09-23T04:31:48.643Z,10.10
2022-09-23T04:34:18.249Z,7.13
2022-09-23T04:36:45.780Z,8.43
2022-09-23T04:39:18.591Z,7.45
2022-09-23T04:41:45.624Z,7.18
2022-09-23T04:44:13.864Z,7.90
2022-09-23T04:46:41.306Z,8.85
2022-09-23T04:49:08.416Z,9.40
2022-09-23T04:51:35.317Z,8.52
2022-09-23T04:54:01.927Z,6.95
2022-09-23T04:56:32.602Z,7.05
2022-09-23T04:59:01.094Z,9.40
2022-09-23T05:01:30.572Z,6.50
2022-09-23T05:04:02.467Z,7.93
2022-09-23T05:06:31.851Z,7.55
2022-09-23T05:08:59.122Z,7.75
2022-09-23T05:11:26.557Z,6.32
2022-09-23T05:13:54.497Z,6.50
2022-09-23T05:16:23.305Z,6.47
2022-09-23T05:18:50.651Z,7.00
2022-09-23T05:21:22.422Z,6.63
2022-09-23T05:23:52.428Z,16.83
2022-09-23T05:26:18.992Z,7.37
2022-09-23T05:28:45.609Z,5.60
2022-09-23T05:31:19.590Z,6.70
2022-09-23T05:34:02.450Z,9.48
2022-09-23T05:36:34.465Z,7.95
2022-09-23T05:39:04.641Z,9.63
2022-09-23T05:41:31.406Z,10.55
2022-09-23T05:43:59.728Z,8.85
2022-09-23T05:46:28.560Z,5.80
2022-09-23T05:49:01.160Z,6.53
2022-09-23T05:51:31.167Z,14.27
2022-09-23T05:53:59.847Z,11.38
2022-09-23T05:56:27.740Z,6.85
2022-09-23T05:58:57.866Z,11.30
2022-09-23T06:01:26.598Z,8.48
2022-09-23T06:03:54.719Z,6.03
2022-09-23T06:06:26.407Z,7.53
2022-09-23T06:08:52.956Z,5.68
2022-09-23T06:11:21.509Z,6.13
2022-09-23T06:13:48.710Z,7.57
2022-09-23T06:16:15.967Z,7.67
2022-09-23T06:18:44.296Z,5.05
2022-09-23T06:21:16.100Z,5.22
2022-09-23T06:23:43.467Z,9.98
2022-09-23T06:26:12.384Z,7.03
2022-09-23T06:28:40.483Z,7.27
2022-09-23T06:31:14.960Z,4.65
2022-09-23T06:33:42.938Z,6.05
2022-09-23T06:36:09.812Z,7.35
2022-09-23T06:38:39.976Z,8.82
2022-09-23T06:41:07.151Z,7.57
2022-09-23T06:43:33.942Z,8.93
2022-09-23T06:46:02.047Z,8.25
2022-09-23T06:48:29.398Z,8.32
2022-09-23T06:50:59.666Z,8.48
2022-09-23T06:53:26.222Z,6.53
2022-09-23T06:56:06.591Z,6.88
2022-09-23T06:58:34.281Z,8.15
2022-09-23T07:01:04.620Z,7.10
2022-09-23T07:03:31.944Z,9.65
2022-09-23T07:05:59.287Z,6.93
2022-09-23T07:08:27.312Z,7.80
2022-09-23T07:10:57.547Z,9.27
2022-09-23T07:13:24.642Z,11.18
2022-09-23T07:15:56.253Z,14.50
2022-09-23T07:18:25.714Z,11.20
2022-09-23T07:20:53.063Z,11.15
2022-09-23T07:23:19.747Z,10.82
2022-09-23T07:25:46.967Z,11.88
2022-09-23T07:28:13.668Z,8.45
2022-09-23T07:30:56.653Z,11.73
2022-09-23T07:33:32.162Z,11.20
2022-09-23T07:35:59.414Z,11.32
2022-09-23T07:38:30.383Z,8.93
2022-09-23T07:41:11.629Z,12.10
2022-09-23T07:43:39.940Z,9.90
2022-09-23T07:46:18.830Z,11.90
2022-09-23T07:48:46.000Z,10.45
2022-09-23T07:51:14.378Z,11.77
2022-09-23T07:53:40.879Z,14.23
2022-09-23T07:56:07.555Z,9.40
2022-09-23T07:58:35.018Z,11.45
2022-09-23T08:01:12.163Z,9.90
2022-09-23T08:03:39.326Z,13.65
2022-09-23T08:06:08.038Z,16.33
2022-09-23T08:08:35.657Z,13.03
2022-09-23T08:11:07.136Z,13.07
2022-09-23T08:13:34.144Z,11.23
2022-09-23T08:16:00.903Z,11.18
2022-09-23T08:18:27.819Z,8.55
2022-09-23T08:20:54.317Z,7.83
2022-09-23T08:23:21.177Z,8.23
2022-09-23T08:25:48.136Z,11.20
2022-09-23T08:28:18.522Z,5.93
2022-09-23T08:30:48.573Z,7.93
2022-09-23T08:33:17.475Z,7.70
2022-09-23T08:35:46.345Z,7.22
2022-09-23T08:38:12.967Z,6.68
2022-09-23T08:40:42.413Z,8.18
2022-09-23T08:43:17.660Z,9.98
2022-09-23T08:45:44.916Z,5.13
2022-09-23T08:48:17.158Z,4.50
2022-09-23T08:50:46.808Z,5.55
2022-09-23T08:53:38.035Z,4.93
2022-09-23T08:56:13.761Z,4.95
2022-09-23T08:59:29.270Z,3.33
2022-09-23T09:02:01.212Z,1.33
2022-09-23T09:04:40.624Z,3.08
2022-09-23T09:07:24.922Z,1.63
2022-09-23T09:10:12.079Z,1.65
2022-09-23T09:12:43.774Z,4.87
2022-09-23T09:15:25.458Z,1.83
2022-09-23T09:18:06.500Z,1.45
2022-09-23T09:20:57.341Z,2.67
2022-09-23T09:23:29.877Z,2.80
2022-09-23T09:25:59.531Z,2.10
2022-09-23T09:29:17.147Z,3.47
2022-09-23T09:31:51.619Z,1.52
2022-09-23T09:34:21.349Z,2.40
2022-09-23T09:37:07.879Z,3.55
2022-09-23T09:39:35.292Z,3.20
2022-09-23T09:42:02.546Z,1.98
2022-09-23T09:45:11.232Z,3.35
2022-09-23T09:48:06.660Z,3.75
2022-09-23T09:50:53.064Z,2.90
2022-09-23T09:53:22.315Z,4.17
2022-09-23T09:56:08.128Z,1.00
2022-09-23T09:58:43.779Z,3.17
2022-09-23T10:01:22.539Z,3.58
2022-09-23T10:03:53.193Z,5.07
2022-09-23T10:06:33.209Z,2.47
2022-09-23T10:09:21.656Z,2.05
2022-09-23T10:12:15.889Z,1.58
2022-09-23T10:14:43.028Z,1.20
2022-09-23T10:17:20.605Z,1.60
2022-09-23T10:20:08.237Z,1.23
2022-09-23T10:22:42.851Z,4.03
2022-09-23T10:25:26.767Z,1.45
2022-09-23T10:27:53.503Z,4.78
2022-09-23T10:30:23.027Z,2.25
2022-09-23T10:32:51.597Z,4.23
2022-09-23T10:35:24.516Z,1.58
2022-09-23T10:37:58.246Z,2.42
2022-09-23T10:40:58.826Z,3.40
2022-09-23T10:44:11.698Z,1.38
2022-09-23T10:46:52.227Z,1.73
2022-09-23T10:49:49.945Z,3.67
2022-09-23T10:52:39.567Z,2.75
2022-09-23T10:55:27.754Z,1.95
2022-09-23T10:57:54.186Z,3.30
2022-09-23T11:00:42.066Z,3.87
2022-09-23T11:03:20.648Z,2.13
2022-09-23T11:05:56.329Z,1.77
2022-09-23T11:08:29.759Z,1.10
2022-09-23T11:11:21.139Z,1.80
2022-09-23T11:14:25.224Z,1.40
2022-09-23T11:17:04.769Z,1.95
2022-09-23T11:19:49.396Z,1.15
2022-09-23T11:22:38.062Z,1.35
2022-09-23T11:25:08.182Z,1.48
2022-09-23T11:28:17.524Z,2.17
2022-09-23T11:31:04.287Z,2.03
2022-09-23T11:33:53.887Z,1.48
2022-09-23T11:36:35.710Z,1.55
2022-09-23T11:39:36.120Z,1.15
2022-09-23T11:42:10.684Z,1.87
2022-09-23T11:44:45.879Z,1.42
2022-09-23T11:47:49.970Z,2.90
2022-09-23T11:50:28.429Z,3.35
2022-09-23T11:53:04.792Z,2.60
2022-09-23T11:55:54.259Z,1.30
2022-09-23T11:58:31.860Z,2.03
2022-09-23T12:01:02.908Z,1.50
2022-09-23T12:04:01.165Z,1.30
2022-09-23T12:06:38.416Z,1.67
2022-09-23T12:09:14.495Z,1.17
2022-09-23T12:11:46.707Z,1.25
2022-09-23T12:14:23.900Z,2.55
2022-09-23T12:16:56.124Z,2.05
2022-09-23T12:19:47.641Z,3.42
2022-09-23T12:22:39.172Z,1.70
2022-09-23T12:25:35.649Z,1.95
2022-09-23T12:28:10.407Z,3.05
2022-09-23T12:30:37.589Z,2.60
2022-09-23T12:33:31.180Z,5.28
2022-09-23T12:36:06.324Z,3.03
2022-09-23T12:38:47.536Z,1.75
2022-09-23T12:41:24.046Z,1.67
2022-09-23T12:43:55.319Z,1.63
2022-09-23T12:46:27.470Z,4.38
2022-09-23T12:48:57.779Z,1.23
2022-09-23T12:51:34.822Z,4.43
2022-09-23T12:54:04.418Z,8.68
2022-09-23T12:56:40.031Z,1.83
2022-09-23T12:59:28.054Z,1.70
2022-09-23T13:01:55.434Z,3.20
2022-09-23T13:04:50.868Z,1.50
2022-09-23T13:07:25.980Z,1.75
2022-09-23T13:09:56.057Z,2.28
2022-09-23T13:12:31.113Z,1.95
2022-09-23T13:15:03.256Z,4.07
2022-09-23T13:17:36.127Z,1.40
2022-09-23T13:20:32.941Z,1.50
2022-09-23T13:23:04.205Z,2.47
2022-09-23T13:25:33.709Z,3.22
2022-09-23T13:28:03.881Z,3.60
2022-09-23T13:30:30.516Z,3.47
2022-09-23T13:33:05.344Z,2.08
2022-09-23T13:35:37.206Z,4.95
2022-09-23T13:38:32.172Z,1.70
2022-09-23T13:41:23.115Z,2.53
2022-09-23T13:43:52.493Z,1.38
2022-09-23T13:46:23.930Z,1.33
2022-09-23T13:48:55.847Z,2.42
2022-09-23T13:51:38.186Z,1.05
2022-09-23T13:54:05.194Z,2.10
2022-09-23T13:56:33.157Z,2.65
2022-09-23T13:59:28.304Z,1.52
2022-09-23T14:02:12.389Z,2.05
2022-09-23T14:04:40.349Z,1.38
2022-09-23T14:07:07.348Z,2.20
2022-09-23T14:09:35.588Z,2.03
2022-09-23T14:12:02.581Z,2.13
2022-09-23T14:14:30.503Z,1.48
2022-09-23T14:16:57.700Z,1.88
2022-09-23T14:19:28.263Z,2.63
2022-09-23T14:21:56.193Z,4.40
2022-09-23T14:24:22.639Z,1.75
2022-09-23T14:26:52.377Z,2.70
2022-09-23T14:29:33.116Z,2.80
2022-09-23T14:32:06.666Z,3.03
2022-09-23T14:34:51.697Z,2.83
2022-09-23T14:37:36.759Z,5.35
2022-09-23T14:40:13.931Z,2.20
2022-09-23T14:42:43.503Z,3.88
2022-09-23T14:45:19.569Z,4.07
2022-09-23T14:47:49.055Z,3.45
2022-09-23T14:50:37.205Z,6.53
2022-09-23T14:53:05.127Z,3.25
2022-09-23T14:55:31.777Z,3.90
2022-09-23T14:58:05.492Z,5.90
2022-09-23T15:00:31.974Z,4.75
2022-09-23T15:03:01.475Z,4.32
2022-09-23T15:05:47.837Z,2.25
2022-09-23T15:08:18.510Z,2.88
2022-09-23T15:10:46.175Z,4.50
2022-09-23T15:13:17.915Z,3.88
2022-09-23T15:15:44.610Z,5.07
2022-09-23T15:18:28.709Z,2.80
2022-09-23T15:21:02.536Z,3.35
2022-09-23T15:23:41.596Z,7.47
2022-09-23T15:26:15.456Z,3.22
2022-09-23T15:28:45.453Z,3.75
2022-09-23T15:31:12.876Z,4.88
2022-09-23T15:33:39.656Z,3.15
2022-09-23T15:36:06.304Z,6.07
2022-09-23T15:38:32.978Z,6.10
2022-09-23T15:40:59.477Z,3.13
2022-09-23T15:43:27.589Z,6.03
2022-09-23T15:45:59.116Z,6.22
2022-09-23T15:48:32.698Z,6.93
2022-09-23T15:51:04.348Z,4.63
2022-09-23T15:53:31.549Z,5.55
2022-09-23T15:55:59.213Z,4.10
2022-09-23T15:58:26.317Z,5.88
2022-09-23T16:00:56.831Z,5.50
2022-09-23T16:03:33.398Z,3.72
2022-09-23T16:06:03.085Z,4.00
2022-09-23T16:08:32.339Z,3.95
2022-09-23T16:10:59.617Z,3.25
2022-09-23T16:13:26.151Z,5.83
2022-09-23T16:15:52.718Z,3.63
2022-09-23T16:18:19.378Z,5.68
2022-09-23T16:20:46.451Z,6.80
2022-09-23T16:23:34.504Z,3.25
2022-09-23T16:26:17.128Z,3.93
2022-09-23T16:28:45.239Z,4.32
2022-09-23T16:31:14.643Z,5.47
2022-09-23T16:33:41.603Z,3.83
2022-09-23T16:36:23.270Z,4.05
2022-09-23T16:38:50.022Z,5.43
2022-09-23T16:41:16.575Z,4.30
2022-09-23T16:43:43.098Z,3.65
2022-09-23T16:46:12.303Z,7.63
2022-09-23T16:48:40.553Z,6.00
2022-09-23T16:51:08.940Z,4.70
2022-09-23T16:53:35.983Z,9.77
2022-09-23T16:56:09.780Z,8.30
2022-09-23T16:58:37.399Z,5.05
2022-09-23T17:01:23.944Z,4.90
2022-09-23T17:03:50.527Z,4.73
2022-09-23T17:06:19.552Z,7.18
2022-09-23T17:08:48.264Z,5.75
2022-09-23T17:11:16.485Z,5.30
2022-09-23T17:13:43.918Z,7.13
2022-09-23T17:16:12.824Z,8.40
2022-09-23T17:18:39.357Z,6.97
2022-09-23T17:21:07.184Z,8.82
2022-09-23T17:23:35.260Z,8.15
2022-09-23T17:26:02.916Z,6.45
2022-09-23T17:28:29.422Z,7.33
2022-09-23T17:31:00.220Z,8.88
2022-09-23T17:33:27.898Z,7.68
2022-09-23T17:35:56.762Z,7.70
2022-09-23T17:38:28.668Z,8.68
2022-09-23T17:41:01.397Z,7.50
2022-09-23T17:43:31.756Z,7.90
2022-09-23T17:46:06.659Z,9.45
2022-09-23T17:48:35.103Z,6.75
2022-09-23T17:51:06.744Z,7.57
2022-09-23T17:53:35.455Z,9.70
2022-09-23T17:56:04.701Z,12.70
2022-09-23T17:58:33.378Z,16.77
2022-09-23T18:01:00.472Z,22.27
2022-09-23T18:03:28.438Z,10.07
2022-09-23T18:05:55.343Z,9.30
2022-09-23T18:08:21.875Z,7.50
2022-09-23T18:10:48.360Z,8.15
2022-09-23T18:13:14.827Z,8.90
2022-09-23T18:15:41.507Z,6.40
2022-09-23T18:18:08.025Z,9.17
2022-09-23T18:20:34.578Z,7.32
2022-09-23T18:23:01.150Z,8.30
2022-09-23T18:25:39.287Z,7.22
2022-09-23T18:28:06.457Z,10.52
2022-09-23T18:30:33.509Z,7.57
2022-09-23T18:33:00.205Z,7.25
2022-09-23T18:35:26.846Z,6.40
2022-09-23T18:37:53.373Z,8.82
2022-09-23T18:40:19.938Z,5.90
2022-09-23T18:42:47.110Z,6.93
2022-09-23T18:45:13.627Z,7.53
2022-09-23T18:47:58.509Z,10.52
2022-09-23T18:50:40.360Z,12.85
2022-09-23T18:53:07.602Z,11.82
2022-09-23T18:55:35.574Z,12.63
2022-09-23T18:58:02.282Z,12.88
2022-09-23T19:00:29.113Z,16.60
2022-09-23T19:02:55.777Z,17.30
2022-09-23T19:05:22.327Z,15.35
2022-09-23T19:07:48.945Z,13.57
2022-09-23T19:10:15.475Z,13.68
2022-09-23T19:12:42.028Z,15.95
2022-09-23T19:15:09.083Z,19.52
2022-09-23T19:17:35.632Z,18.55
2022-09-23T19:20:02.212Z,16.77
2022-09-23T19:22:30.463Z,24.15
2022-09-23T19:24:56.949Z,15.95
2022-09-23T19:27:23.514Z,17.85
2022-09-23T19:29:50.342Z,16.50
2022-09-23T19:32:16.917Z,16.77
2022-09-23T19:34:44.249Z,16.60
2022-09-23T19:37:10.788Z,17.25
2022-09-23T19:39:37.566Z,15.02
2022-09-23T19:42:04.084Z,17.55
2022-09-23T19:44:30.729Z,18.43
2022-09-23T19:46:57.894Z,20.30
2022-09-23T19:49:25.357Z,17.70
2022-09-23T19:51:55.443Z,18.75
2022-09-23T19:54:22.705Z,16.92
2022-09-23T19:56:49.656Z,15.53
2022-09-23T19:59:19.494Z,17.42
2022-09-23T20:01:49.598Z,17.40
2022-09-23T20:04:16.753Z,17.13
2022-09-23T20:06:43.578Z,16.92
2022-09-23T20:09:10.304Z,17.00
2022-09-23T20:11:36.913Z,19.10
2022-09-23T20:14:06.403Z,17.05
2022-09-23T20:16:35.054Z,17.33
2022-09-23T20:19:04.852Z,18.00
2022-09-23T20:21:31.761Z,18.87
2022-09-23T20:23:58.524Z,17.65
2022-09-23T20:26:43.577Z,16.15
2022-09-23T20:29:11.027Z,14.38
2022-09-23T20:31:37.877Z,13.60
2022-09-23T20:34:07.113Z,14.90
2022-09-23T20:36:35.401Z,12.32
2022-09-23T20:39:05.982Z,14.00
2022-09-23T20:41:36.705Z,12.57
2022-09-23T20:44:05.901Z,12.60
2022-09-23T20:46:32.512Z,11.67
2022-09-23T20:48:59.057Z,14.75
2022-09-23T20:51:26.312Z,11.30
2022-09-23T20:53:53.043Z,11.52
2022-09-23T20:56:23.432Z,12.57
2022-09-23T20:58:52.187Z,13.77
2022-09-23T21:01:19.439Z,16.13
2022-09-23T21:03:48.589Z,17.58
2022-09-23T21:06:16.483Z,14.13
2022-09-23T21:08:44.477Z,12.60
2022-09-23T21:11:13.314Z,14.33
2022-09-23T21:13:39.866Z,14.30
2022-09-23T21:16:09.283Z,11.65
2022-09-23T21:18:37.234Z,12.95
2022-09-23T21:21:05.498Z,14.85
2022-09-23T21:23:38.113Z,17.53
2022-09-23T21:26:04.670Z,15.05
2022-09-23T21:28:35.593Z,17.20
2022-09-23T21:31:05.934Z,16.15
2022-09-23T21:33:33.048Z,16.08
2022-09-23T21:36:03.555Z,15.30
2022-09-23T21:38:37.016Z,16.75
2022-09-23T21:41:06.459Z,16.50
2022-09-23T21:43:34.944Z,16.08
2022-09-23T21:46:03.840Z,16.10
2022-09-23T21:48:31.606Z,15.07
2022-09-23T21:51:00.105Z,14.52
2022-09-23T21:53:29.463Z,13.38
2022-09-23T21:56:18.057Z,14.93
2022-09-23T21:58:47.008Z,15.55
2022-09-23T22:01:19.872Z,13.73
2022-09-23T22:03:54.716Z,13.85
2022-09-23T22:06:23.584Z,13.93
2022-09-23T22:08:52.260Z,12.75
2022-09-23T22:11:40.004Z,13.25
2022-09-23T22:14:09.343Z,14.77
2022-09-23T22:16:36.908Z,12.57
2022-09-23T22:19:06.958Z,8.63
2022-09-23T22:21:35.770Z,10.07
2022-09-23T22:24:03.003Z,9.13
2022-09-23T22:26:32.061Z,8.37
2022-09-23T22:29:17.143Z,11.13
2022-09-23T22:32:02.110Z,9.38
2022-09-23T22:34:48.512Z,8.90
2022-09-23T22:37:20.890Z,9.73
2022-09-23T22:39:47.460Z,9.57
2022-09-23T22:42:14.453Z,9.88
2022-09-23T22:44:41.167Z,10.23
2022-09-23T22:47:16.941Z,10.05
2022-09-23T22:49:43.826Z,12.85
2022-09-23T22:52:12.335Z,12.47
2022-09-23T22:54:40.408Z,12.32
2022-09-23T22:57:07.923Z,12.38
2022-09-23T22:59:34.820Z,9.15
2022-09-23T23:02:02.907Z,11.48
2022-09-23T23:04:30.333Z,9.97
2022-09-23T23:06:58.533Z,10.48
2022-09-23T23:09:25.007Z,10.63
2022-09-23T23:11:51.637Z,9.80
2022-09-23T23:14:18.906Z,9.02
2022-09-23T23:16:46.246Z,10.23
2022-09-23T23:19:16.573Z,9.60
2022-09-23T23:21:44.179Z,9.68
2022-09-23T23:24:15.435Z,10.65
2022-09-23T23:26:42.099Z,10.80
2022-09-23T23:29:10.845Z,11.90
2022-09-23T23:31:37.804Z,11.02
2022-09-23T23:34:04.960Z,10.65
2022-09-23T23:36:31.456Z,11.75
2022-09-23T23:38:57.965Z,12.05
2022-09-23T23:41:24.514Z,8.83
2022-09-23T23:43:56.555Z,11.50
2022-09-23T23:46:25.547Z,10.52
2022-09-23T23:48:52.677Z,10.75
2022-09-23T23:51:19.256Z,10.68
2022-09-23T23:53:45.776Z,11.00
2022-09-23T23:56:17.572Z,10.70
2022-09-23T23:58:44.308Z,9.35
